sensor_id;sensor_type;location;lat;lon;timestamp;pressure;altitude;pressure_sealevel;temperature;humidity
26531;BME280;14201;43.188;24.160;2024-02-04T00:01:50;100032.47;;;10.16;64.38
26531;BME280;14201;43.188;24.160;2024-02-04T00:04:15;100028.91;;;10.14;64.13
26531;BME280;14201;43.188;24.160;2024-02-04T00:06:41;100019.28;;;10.13;64.61
26531;BME280;14201;43.188;24.160;2024-02-04T00:09:07;100014.75;;;10.09;64.83
26531;BME280;14201;43.188;24.160;2024-02-04T00:11:33;100019.16;;;10.10;64.51
26531;BME280;14201;43.188;24.160;2024-02-04T00:14:00;100013.00;;;10.08;64.18
26531;BME280;14201;43.188;24.160;2024-02-04T00:16:26;100017.94;;;10.03;64.75
26531;BME280;14201;43.188;24.160;2024-02-04T00:18:51;100015.34;;;10.21;64.49
26531;BME280;14201;43.188;24.160;2024-02-04T00:21:17;100023.13;;;10.20;64.32
26531;BME280;14201;43.188;24.160;2024-02-04T00:23:43;100013.09;;;10.28;63.85
26531;BME280;14201;43.188;24.160;2024-02-04T00:26:09;100000.72;;;10.23;63.69
26531;BME280;14201;43.188;24.160;2024-02-04T00:28:34;99998.28;;;10.27;63.93
26531;BME280;14201;43.188;24.160;2024-02-04T00:31:00;100005.72;;;10.37;63.40
26531;BME280;14201;43.188;24.160;2024-02-04T00:33:26;100006.50;;;10.34;63.41
26531;BME280;14201;43.188;24.160;2024-02-04T00:35:51;100002.31;;;10.38;63.17
26531;BME280;14201;43.188;24.160;2024-02-04T00:38:17;100003.13;;;10.37;63.17
26531;BME280;14201;43.188;24.160;2024-02-04T00:40:43;99999.66;;;10.36;62.97
26531;BME280;14201;43.188;24.160;2024-02-04T00:43:08;99997.03;;;10.36;63.11
26531;BME280;14201;43.188;24.160;2024-02-04T00:45:34;100000.69;;;10.40;63.19
26531;BME280;14201;43.188;24.160;2024-02-04T00:48:00;99987.75;;;10.41;62.77
26531;BME280;14201;43.188;24.160;2024-02-04T00:50:25;99990.84;;;10.52;63.20
26531;BME280;14201;43.188;24.160;2024-02-04T00:52:51;99979.75;;;10.56;62.92
26531;BME280;14201;43.188;24.160;2024-02-04T00:55:19;99983.50;;;10.43;62.67
26531;BME280;14201;43.188;24.160;2024-02-04T00:57:45;99999.66;;;10.36;63.36
26531;BME280;14201;43.188;24.160;2024-02-04T01:00:11;99998.59;;;10.33;63.61
26531;BME280;14201;43.188;24.160;2024-02-04T01:02:38;99997.50;;;10.29;63.74
26531;BME280;14201;43.188;24.160;2024-02-04T01:05:05;99988.59;;;10.24;64.01
26531;BME280;14201;43.188;24.160;2024-02-04T01:07:31;99981.88;;;10.11;63.54
26531;BME280;14201;43.188;24.160;2024-02-04T01:09:56;99991.63;;;10.15;63.79
26531;BME280;14201;43.188;24.160;2024-02-04T01:12:22;99986.44;;;10.15;64.07
26531;BME280;14201;43.188;24.160;2024-02-04T01:14:48;99996.03;;;10.16;64.15
26531;BME280;14201;43.188;24.160;2024-02-04T01:17:13;99995.28;;;10.01;63.85
26531;BME280;14201;43.188;24.160;2024-02-04T01:19:39;99991.53;;;9.96;64.64
26531;BME280;14201;43.188;24.160;2024-02-04T01:22:04;99991.22;;;9.90;64.63
26531;BME280;14201;43.188;24.160;2024-02-04T01:24:31;99984.84;;;9.83;64.75
26531;BME280;14201;43.188;24.160;2024-02-04T01:26:57;99977.78;;;9.64;65.89
26531;BME280;14201;43.188;24.160;2024-02-04T01:29:25;99980.63;;;9.69;65.63
26531;BME280;14201;43.188;24.160;2024-02-04T01:31:51;99971.44;;;9.59;65.92
26531;BME280;14201;43.188;24.160;2024-02-04T01:34:16;99971.94;;;9.52;65.79
26531;BME280;14201;43.188;24.160;2024-02-04T01:36:42;99970.34;;;9.37;66.28
26531;BME280;14201;43.188;24.160;2024-02-04T01:39:08;99969.47;;;9.37;65.95
26531;BME280;14201;43.188;24.160;2024-02-04T01:41:34;99970.34;;;9.37;65.38
26531;BME280;14201;43.188;24.160;2024-02-04T01:44:00;99974.56;;;9.35;64.87
26531;BME280;14201;43.188;24.160;2024-02-04T01:46:25;99964.34;;;9.38;64.99
26531;BME280;14201;43.188;24.160;2024-02-04T01:48:51;99971.81;;;9.32;64.82
26531;BME280;14201;43.188;24.160;2024-02-04T01:51:17;99974.97;;;9.26;64.67
26531;BME280;14201;43.188;24.160;2024-02-04T01:53:45;99968.19;;;9.29;64.83
26531;BME280;14201;43.188;24.160;2024-02-04T01:56:12;99960.59;;;9.33;63.31
26531;BME280;14201;43.188;24.160;2024-02-04T01:58:39;99966.47;;;9.29;63.97
26531;BME280;14201;43.188;24.160;2024-02-04T02:01:05;99958.09;;;9.18;64.26
26531;BME280;14201;43.188;24.160;2024-02-04T02:03:31;99959.06;;;9.20;63.74
26531;BME280;14201;43.188;24.160;2024-02-04T02:05:59;99960.13;;;9.24;63.47
26531;BME280;14201;43.188;24.160;2024-02-04T02:08:25;99970.50;;;9.24;63.70
26531;BME280;14201;43.188;24.160;2024-02-04T02:10:51;99954.09;;;9.09;64.03
26531;BME280;14201;43.188;24.160;2024-02-04T02:13:24;99951.78;;;9.13;63.62
26531;BME280;14201;43.188;24.160;2024-02-04T02:16:26;99954.09;;;9.09;63.94
26531;BME280;14201;43.188;24.160;2024-02-04T02:19:00;99955.91;;;9.10;63.45
26531;BME280;14201;43.188;24.160;2024-02-04T02:24:39;99952.50;;;8.94;63.81
26531;BME280;14201;43.188;24.160;2024-02-04T02:27:05;99950.59;;;8.92;64.17
26531;BME280;14201;43.188;24.160;2024-02-04T02:29:32;99949.81;;;8.76;64.99
26531;BME280;14201;43.188;24.160;2024-02-04T02:32:01;99944.19;;;8.85;64.25
26531;BME280;14201;43.188;24.160;2024-02-04T02:34:29;99957.59;;;8.93;64.43
26531;BME280;14201;43.188;24.160;2024-02-04T02:37:22;99956.53;;;8.89;64.43
26531;BME280;14201;43.188;24.160;2024-02-04T02:40:12;99944.84;;;8.97;64.35
26531;BME280;14201;43.188;24.160;2024-02-04T02:42:43;99951.41;;;9.07;64.03
26531;BME280;14201;43.188;24.160;2024-02-04T02:45:11;99956.69;;;9.09;63.87
26531;BME280;14201;43.188;24.160;2024-02-04T02:47:39;99944.03;;;9.15;62.86
26531;BME280;14201;43.188;24.160;2024-02-04T02:50:07;99941.13;;;9.09;63.32
26531;BME280;14201;43.188;24.160;2024-02-04T02:52:33;99941.38;;;9.13;63.79
26531;BME280;14201;43.188;24.160;2024-02-04T02:54:58;99950.38;;;9.20;63.41
26531;BME280;14201;43.188;24.160;2024-02-04T02:57:24;99948.84;;;9.23;63.05
26531;BME280;14201;43.188;24.160;2024-02-04T02:59:50;99944.38;;;9.21;63.55
26531;BME280;14201;43.188;24.160;2024-02-04T03:02:15;99944.22;;;9.18;64.01
26531;BME280;14201;43.188;24.160;2024-02-04T03:04:41;99942.09;;;9.11;64.21
26531;BME280;14201;43.188;24.160;2024-02-04T03:07:07;99954.09;;;9.09;63.92
26531;BME280;14201;43.188;24.160;2024-02-04T03:12:08;99953.22;;;9.08;64.29
26531;BME280;14201;43.188;24.160;2024-02-04T03:14:34;99957.34;;;9.04;64.63
26531;BME280;14201;43.188;24.160;2024-02-04T03:16:59;99952.81;;;9.00;64.49
26531;BME280;14201;43.188;24.160;2024-02-04T03:19:25;99969.28;;;9.01;65.24
26531;BME280;14201;43.188;24.160;2024-02-04T03:21:50;99963.13;;;8.99;64.95
26531;BME280;14201;43.188;24.160;2024-02-04T03:24:16;99971.19;;;9.03;65.29
26531;BME280;14201;43.188;24.160;2024-02-04T03:26:42;99964.00;;;8.99;64.79
26531;BME280;14201;43.188;24.160;2024-02-04T03:29:07;99968.00;;;8.93;65.54
26531;BME280;14201;43.188;24.160;2024-02-04T03:31:33;99967.44;;;8.98;65.38
26531;BME280;14201;43.188;24.160;2024-02-04T03:33:59;99971.00;;;9.00;64.89
26531;BME280;14201;43.188;24.160;2024-02-04T03:36:25;99967.75;;;9.04;64.61
26531;BME280;14201;43.188;24.160;2024-02-04T03:38:51;99979.28;;;9.10;65.20
26531;BME280;14201;43.188;24.160;2024-02-04T03:41:17;99976.53;;;9.06;65.15
26531;BME280;14201;43.188;24.160;2024-02-04T03:43:43;99986.44;;;9.14;65.00
26531;BME280;14201;43.188;24.160;2024-02-04T03:46:13;99985.59;;;9.15;64.53
26531;BME280;14201;43.188;24.160;2024-02-04T03:48:39;99988.63;;;9.22;64.72
26531;BME280;14201;43.188;24.160;2024-02-04T03:51:04;99984.66;;;9.29;64.13
26531;BME280;14201;43.188;24.160;2024-02-04T03:53:30;99989.19;;;9.33;63.86
26531;BME280;14201;43.188;24.160;2024-02-04T03:55:55;99981.50;;;9.35;63.99
26531;BME280;14201;43.188;24.160;2024-02-04T03:58:22;99988.53;;;9.37;66.25
26531;BME280;14201;43.188;24.160;2024-02-04T04:00:55;99980.56;;;9.51;67.80
26531;BME280;14201;43.188;24.160;2024-02-04T04:03:21;99983.22;;;9.69;68.21
26531;BME280;14201;43.188;24.160;2024-02-04T04:05:47;99979.25;;;9.75;67.55
26531;BME280;14201;43.188;24.160;2024-02-04T04:08:13;99975.97;;;9.79;67.06
26531;BME280;14201;43.188;24.160;2024-02-04T04:10:39;99973.22;;;9.76;67.68
26531;BME280;14201;43.188;24.160;2024-02-04T04:13:04;99976.94;;;9.81;68.46
26531;BME280;14201;43.188;24.160;2024-02-04T04:15:30;99975.91;;;9.78;68.33
26531;BME280;14201;43.188;24.160;2024-02-04T04:17:56;99972.16;;;9.73;68.29
26531;BME280;14201;43.188;24.160;2024-02-04T04:20:21;99984.22;;;9.89;67.45
26531;BME280;14201;43.188;24.160;2024-02-04T04:22:47;99966.69;;;9.84;67.19
26531;BME280;14201;43.188;24.160;2024-02-04T04:25:14;99968.78;;;9.92;66.91
26531;BME280;14201;43.188;24.160;2024-02-04T04:27:39;99959.88;;;10.04;65.66
26531;BME280;14201;43.188;24.160;2024-02-04T04:30:06;99964.25;;;9.88;65.73
26531;BME280;14201;43.188;24.160;2024-02-04T04:32:31;99958.84;;;10.01;65.77
26531;BME280;14201;43.188;24.160;2024-02-04T04:34:57;99944.19;;;10.03;65.72
26531;BME280;14201;43.188;24.160;2024-02-04T04:37:23;99955.41;;;10.02;66.19
26531;BME280;14201;43.188;24.160;2024-02-04T04:39:49;99956.84;;;9.79;67.36
26531;BME280;14201;43.188;24.160;2024-02-04T04:42:14;99966.75;;;9.86;67.46
26531;BME280;14201;43.188;24.160;2024-02-04T04:44:40;99962.81;;;9.76;67.61
26531;BME280;14201;43.188;24.160;2024-02-04T04:47:06;99965.97;;;9.71;68.51
26531;BME280;14201;43.188;24.160;2024-02-04T04:49:31;99972.53;;;9.80;67.70
26531;BME280;14201;43.188;24.160;2024-02-04T04:51:57;99975.69;;;9.73;68.17
26531;BME280;14201;43.188;24.160;2024-02-04T04:54:23;99978.28;;;9.73;68.35
26531;BME280;14201;43.188;24.160;2024-02-04T04:56:49;99973.38;;;9.79;68.26
26531;BME280;14201;43.188;24.160;2024-02-04T04:59:17;99973.06;;;9.73;68.67
26531;BME280;14201;43.188;24.160;2024-02-04T05:01:49;99978.31;;;9.75;68.76
26531;BME280;14201;43.188;24.160;2024-02-04T05:04:16;99968.31;;;9.82;68.26
26531;BME280;14201;43.188;24.160;2024-02-04T05:06:42;99974.19;;;9.78;68.31
26531;BME280;14201;43.188;24.160;2024-02-04T05:09:08;99976.94;;;9.81;68.03
26531;BME280;14201;43.188;24.160;2024-02-04T05:11:34;99980.53;;;9.67;68.51
26531;BME280;14201;43.188;24.160;2024-02-04T05:14:00;99990.63;;;9.61;68.63
26531;BME280;14201;43.188;24.160;2024-02-04T05:16:25;99982.69;;;9.58;68.71
26531;BME280;14201;43.188;24.160;2024-02-04T05:18:51;99981.72;;;9.56;68.73
26531;BME280;14201;43.188;24.160;2024-02-04T05:21:17;99985.78;;;9.51;68.57
26531;BME280;14201;43.188;24.160;2024-02-04T05:23:42;99991.06;;;9.36;68.54
26531;BME280;14201;43.188;24.160;2024-02-04T05:26:08;99992.69;;;9.34;68.89
26531;BME280;14201;43.188;24.160;2024-02-04T05:28:34;99996.69;;;9.27;69.10
26531;BME280;14201;43.188;24.160;2024-02-04T05:31:01;99990.09;;;9.17;69.80
26531;BME280;14201;43.188;24.160;2024-02-04T05:33:28;99998.69;;;9.16;69.51
26531;BME280;14201;43.188;24.160;2024-02-04T05:35:53;99994.38;;;9.17;69.11
26531;BME280;14201;43.188;24.160;2024-02-04T05:38:20;100000.56;;;9.19;69.54
26531;BME280;14201;43.188;24.160;2024-02-04T05:40:46;100003.34;;;9.38;68.65
26531;BME280;14201;43.188;24.160;2024-02-04T05:43:12;100007.88;;;9.42;68.25
26531;BME280;14201;43.188;24.160;2024-02-04T05:45:37;100013.16;;;9.27;68.87
26531;BME280;14201;43.188;24.160;2024-02-04T05:48:09;100012.25;;;9.43;68.62
26531;BME280;14201;43.188;24.160;2024-02-04T05:50:35;100012.91;;;9.39;69.44
26531;BME280;14201;43.188;24.160;2024-02-04T05:53:01;100023.13;;;9.36;69.38
26531;BME280;14201;43.188;24.160;2024-02-04T05:55:27;100022.75;;;9.29;69.42
26531;BME280;14201;43.188;24.160;2024-02-04T05:57:52;100021.19;;;9.32;69.18
26531;BME280;14201;43.188;24.160;2024-02-04T06:00:21;100013.41;;;9.49;70.32
26531;BME280;14201;43.188;24.160;2024-02-04T06:02:47;100024.78;;;9.51;69.19
26531;BME280;14201;43.188;24.160;2024-02-04T06:05:13;100018.25;;;9.59;68.62
26531;BME280;14201;43.188;24.160;2024-02-04T06:07:39;100022.31;;;9.54;68.89
26531;BME280;14201;43.188;24.160;2024-02-04T06:10:08;100037.91;;;9.54;69.02
26531;BME280;14201;43.188;24.160;2024-02-04T06:12:34;100033.22;;;9.63;69.59
26531;BME280;14201;43.188;24.160;2024-02-04T06:15:00;100023.28;;;9.72;69.65
26531;BME280;14201;43.188;24.160;2024-02-04T06:17:26;100026.69;;;9.88;70.54
26531;BME280;14201;43.188;24.160;2024-02-04T06:19:51;100040.63;;;10.06;70.59
26531;BME280;14201;43.188;24.160;2024-02-04T06:22:17;100030.59;;;10.30;69.32
26531;BME280;14201;43.188;24.160;2024-02-04T06:24:43;100034.03;;;10.47;68.64
26531;BME280;14201;43.188;24.160;2024-02-04T06:27:08;100042.94;;;10.52;69.17
26531;BME280;14201;43.188;24.160;2024-02-04T06:29:34;100042.81;;;10.67;67.74
26531;BME280;14201;43.188;24.160;2024-02-04T06:32:00;100038.94;;;10.59;68.24
26531;BME280;14201;43.188;24.160;2024-02-04T06:34:25;100027.25;;;10.69;68.29
26531;BME280;14201;43.188;24.160;2024-02-04T06:36:51;100037.28;;;10.79;68.21
26531;BME280;14201;43.188;24.160;2024-02-04T06:39:17;100030.88;;;10.90;66.95
26531;BME280;14201;43.188;24.160;2024-02-04T06:41:42;100028.41;;;10.93;66.96
26531;BME280;14201;43.188;24.160;2024-02-04T06:44:08;100028.59;;;11.16;67.17
26531;BME280;14201;43.188;24.160;2024-02-04T06:46:34;100023.31;;;11.34;65.37
26531;BME280;14201;43.188;24.160;2024-02-04T06:48:59;100025.88;;;11.52;65.22
26531;BME280;14201;43.188;24.160;2024-02-04T06:51:26;100023.38;;;11.74;64.43
26531;BME280;14201;43.188;24.160;2024-02-04T06:53:51;100014.09;;;12.00;63.96
26531;BME280;14201;43.188;24.160;2024-02-04T06:56:17;100018.75;;;12.29;62.39
26531;BME280;14201;43.188;24.160;2024-02-04T06:58:42;100021.34;;;12.50;61.07
26531;BME280;14201;43.188;24.160;2024-02-04T07:01:08;100017.94;;;12.51;61.01
26531;BME280;14201;43.188;24.160;2024-02-04T07:03:34;100030.03;;;12.49;61.09
26531;BME280;14201;43.188;24.160;2024-02-04T07:05:59;100030.91;;;12.49;61.31
26531;BME280;14201;43.188;24.160;2024-02-04T07:08:25;100032.81;;;12.53;60.40
26531;BME280;14201;43.188;24.160;2024-02-04T07:10:51;100023.47;;;12.58;60.36
26531;BME280;14201;43.188;24.160;2024-02-04T07:13:16;100034.97;;;12.64;60.50
26531;BME280;14201;43.188;24.160;2024-02-04T07:15:42;100026.19;;;12.61;59.30
26531;BME280;14201;43.188;24.160;2024-02-04T07:18:07;100012.53;;;12.69;59.48
26531;BME280;14201;43.188;24.160;2024-02-04T07:20:33;100037.84;;;12.70;60.42
26531;BME280;14201;43.188;24.160;2024-02-04T07:22:58;100039.38;;;12.65;60.03
26531;BME280;14201;43.188;24.160;2024-02-04T07:25:24;100047.31;;;12.68;59.95
26531;BME280;14201;43.188;24.160;2024-02-04T07:27:49;100037.72;;;12.67;59.36
26531;BME280;14201;43.188;24.160;2024-02-04T07:30:15;100039.31;;;12.63;60.10
26531;BME280;14201;43.188;24.160;2024-02-04T07:32:43;100038.53;;;12.66;59.39
26531;BME280;14201;43.188;24.160;2024-02-04T07:35:09;100038.91;;;12.75;59.70
26531;BME280;14201;43.188;24.160;2024-02-04T07:37:35;100043.09;;;12.70;60.10
26531;BME280;14201;43.188;24.160;2024-02-04T07:40:00;100028.84;;;12.63;59.96
26531;BME280;14201;43.188;24.160;2024-02-04T07:42:26;100044.69;;;12.66;59.24
26531;BME280;14201;43.188;24.160;2024-02-04T07:44:52;100042.88;;;12.65;59.18
26531;BME280;14201;43.188;24.160;2024-02-04T07:47:17;100031.66;;;12.68;59.54
26531;BME280;14201;43.188;24.160;2024-02-04T07:49:44;100034.88;;;12.60;59.19
26531;BME280;14201;43.188;24.160;2024-02-04T07:52:10;100023.78;;;12.66;60.08
26531;BME280;14201;43.188;24.160;2024-02-04T07:54:35;100033.50;;;12.70;59.45
26531;BME280;14201;43.188;24.160;2024-02-04T07:57:01;100032.63;;;12.70;59.79
26531;BME280;14201;43.188;24.160;2024-02-04T07:59:26;100042.47;;;12.77;59.39
26531;BME280;14201;43.188;24.160;2024-02-04T08:01:52;100027.03;;;12.83;59.45
26531;BME280;14201;43.188;24.160;2024-02-04T08:04:17;100019.38;;;12.88;58.98
26531;BME280;14201;43.188;24.160;2024-02-04T08:06:43;100017.06;;;12.95;58.87
26531;BME280;14201;43.188;24.160;2024-02-04T08:09:08;100008.66;;;13.04;58.89
26531;BME280;14201;43.188;24.160;2024-02-04T08:11:34;100009.97;;;13.15;57.76
26531;BME280;14201;43.188;24.160;2024-02-04T08:13:59;100005.19;;;13.28;56.77
26531;BME280;14201;43.188;24.160;2024-02-04T08:16:25;100002.81;;;13.32;57.72
26531;BME280;14201;43.188;24.160;2024-02-04T08:18:51;100001.06;;;13.33;57.39
26531;BME280;14201;43.188;24.160;2024-02-04T08:21:16;99999.91;;;13.49;57.54
26531;BME280;14201;43.188;24.160;2024-02-04T08:23:42;99995.22;;;13.64;55.98
26531;BME280;14201;43.188;24.160;2024-02-04T08:26:07;99997.09;;;13.68;55.06
26531;BME280;14201;43.188;24.160;2024-02-04T08:28:32;99998.28;;;13.76;54.66
26531;BME280;14201;43.188;24.160;2024-02-04T08:30:58;99982.47;;;13.73;53.53
26531;BME280;14201;43.188;24.160;2024-02-04T08:33:23;99994.16;;;13.83;54.00
26531;BME280;14201;43.188;24.160;2024-02-04T08:35:52;99981.31;;;13.91;53.53
26531;BME280;14201;43.188;24.160;2024-02-04T08:38:17;99990.38;;;14.01;53.62
26531;BME280;14201;43.188;24.160;2024-02-04T08:40:43;99993.25;;;14.08;53.38
26531;BME280;14201;43.188;24.160;2024-02-04T08:43:08;99986.84;;;14.26;53.07
26531;BME280;14201;43.188;24.160;2024-02-04T08:45:34;99981.91;;;14.35;52.71
26531;BME280;14201;43.188;24.160;2024-02-04T08:47:59;99957.66;;;14.41;51.82
26531;BME280;14201;43.188;24.160;2024-02-04T08:50:25;99958.78;;;14.49;50.92
26531;BME280;14201;43.188;24.160;2024-02-04T08:52:50;99968.78;;;14.61;50.96
26531;BME280;14201;43.188;24.160;2024-02-04T08:55:16;99961.28;;;14.73;50.89
26531;BME280;14201;43.188;24.160;2024-02-04T08:57:41;99964.94;;;14.78;50.30
26531;BME280;14201;43.188;24.160;2024-02-04T09:00:07;99972.16;;;14.85;50.06
26531;BME280;14201;43.188;24.160;2024-02-04T09:02:36;99972.94;;;14.83;49.50
26531;BME280;14201;43.188;24.160;2024-02-04T09:05:02;99980.91;;;14.86;50.14
26531;BME280;14201;43.188;24.160;2024-02-04T09:07:28;99975.66;;;14.86;49.60
26531;BME280;14201;43.188;24.160;2024-02-04T09:09:53;99980.03;;;14.85;49.38
26531;BME280;14201;43.188;24.160;2024-02-04T09:12:19;99982.59;;;14.84;49.66
26531;BME280;14201;43.188;24.160;2024-02-04T09:14:45;99982.66;;;14.85;49.32
26531;BME280;14201;43.188;24.160;2024-02-04T09:17:10;99985.34;;;14.88;49.33
26531;BME280;14201;43.188;24.160;2024-02-04T09:19:39;99979.00;;;14.80;49.52
26531;BME280;14201;43.188;24.160;2024-02-04T09:22:04;99994.78;;;14.82;49.59
26531;BME280;14201;43.188;24.160;2024-02-04T09:24:30;99992.22;;;14.83;49.93
26531;BME280;14201;43.188;24.160;2024-02-04T09:26:56;99992.53;;;14.94;49.72
26531;BME280;14201;43.188;24.160;2024-02-04T09:29:22;99990.25;;;15.05;48.83
26531;BME280;14201;43.188;24.160;2024-02-04T09:31:47;99986.09;;;15.13;49.63
26531;BME280;14201;43.188;24.160;2024-02-04T09:34:15;99977.53;;;15.19;48.69
26531;BME280;14201;43.188;24.160;2024-02-04T09:36:41;99985.91;;;15.37;49.17
26531;BME280;14201;43.188;24.160;2024-02-04T09:39:06;99986.59;;;15.62;48.79
26531;BME280;14201;43.188;24.160;2024-02-04T09:41:33;99982.44;;;15.68;47.26
26531;BME280;14201;43.188;24.160;2024-02-04T09:43:59;99991.63;;;15.54;47.26
26531;BME280;14201;43.188;24.160;2024-02-04T09:46:26;99981.28;;;15.28;47.51
26531;BME280;14201;43.188;24.160;2024-02-04T09:48:53;99993.03;;;15.11;48.07
26531;BME280;14201;43.188;24.160;2024-02-04T09:51:20;100006.97;;;15.10;48.67
26531;BME280;14201;43.188;24.160;2024-02-04T09:53:53;100000.72;;;15.05;48.42
26531;BME280;14201;43.188;24.160;2024-02-04T09:56:22;100009.38;;;15.02;48.39
26531;BME280;14201;43.188;24.160;2024-02-04T09:58:50;100004.06;;;14.99;48.48
26531;BME280;14201;43.188;24.160;2024-02-04T10:01:19;100012.56;;;14.92;48.83
26531;BME280;14201;43.188;24.160;2024-02-04T10:03:47;100010.66;;;14.86;49.36
26531;BME280;14201;43.188;24.160;2024-02-04T10:06:13;100015.75;;;14.82;49.37
26531;BME280;14201;43.188;24.160;2024-02-04T10:08:39;100004.91;;;14.71;49.18
26531;BME280;14201;43.188;24.160;2024-02-04T10:11:05;100018.91;;;14.70;50.21
26531;BME280;14201;43.188;24.160;2024-02-04T10:13:30;100009.53;;;14.78;50.07
26531;BME280;14201;43.188;24.160;2024-02-04T10:16:07;100016.00;;;14.89;50.47
26531;BME280;14201;43.188;24.160;2024-02-04T10:18:33;100014.38;;;14.93;50.09
26531;BME280;14201;43.188;24.160;2024-02-04T10:20:58;100014.38;;;14.94;50.19
26531;BME280;14201;43.188;24.160;2024-02-04T10:23:24;99994.63;;;15.06;50.14
26531;BME280;14201;43.188;24.160;2024-02-04T10:25:58;100014.59;;;15.01;50.02
26531;BME280;14201;43.188;24.160;2024-02-04T10:28:24;99984.38;;;14.85;49.83
26531;BME280;14201;43.188;24.160;2024-02-04T10:30:51;100001.59;;;14.76;50.36
26531;BME280;14201;43.188;24.160;2024-02-04T10:33:16;100000.72;;;14.76;50.86
26531;BME280;14201;43.188;24.160;2024-02-04T10:35:42;99994.38;;;14.69;51.18
26531;BME280;14201;43.188;24.160;2024-02-04T10:38:08;99995.47;;;14.76;51.24
26531;BME280;14201;43.188;24.160;2024-02-04T10:40:35;99985.00;;;14.76;51.05
26531;BME280;14201;43.188;24.160;2024-02-04T10:43:04;99977.59;;;14.63;51.77
26531;BME280;14201;43.188;24.160;2024-02-04T10:45:32;99975.94;;;14.66;51.78
26531;BME280;14201;43.188;24.160;2024-02-04T10:48:04;99972.69;;;14.75;51.77
26531;BME280;14201;43.188;24.160;2024-02-04T10:50:34;99957.06;;;14.78;51.22
26531;BME280;14201;43.188;24.160;2024-02-04T10:53:04;99964.31;;;14.85;50.81
26531;BME280;14201;43.188;24.160;2024-02-04T10:55:37;99943.97;;;14.78;51.18
26531;BME280;14201;43.188;24.160;2024-02-04T10:58:05;99954.59;;;14.83;51.00
26531;BME280;14201;43.188;24.160;2024-02-04T11:00:33;99950.44;;;14.89;51.25
26531;BME280;14201;43.188;24.160;2024-02-04T11:03:00;99937.88;;;15.09;51.08
26531;BME280;14201;43.188;24.160;2024-02-04T11:05:29;99926.84;;;15.21;50.21
26531;BME280;14201;43.188;24.160;2024-02-04T11:07:55;99922.34;;;15.49;50.14
26531;BME280;14201;43.188;24.160;2024-02-04T11:10:22;99918.31;;;15.62;50.03
26531;BME280;14201;43.188;24.160;2024-02-04T11:12:50;99916.78;;;15.70;49.06
26531;BME280;14201;43.188;24.160;2024-02-04T11:15:18;99922.25;;;15.78;48.94
26531;BME280;14201;43.188;24.160;2024-02-04T11:18:09;99920.75;;;15.86;48.71
26531;BME280;14201;43.188;24.160;2024-02-04T11:20:53;99911.97;;;15.85;48.50
26531;BME280;14201;43.188;24.160;2024-02-04T11:23:32;99897.06;;;15.84;48.63
26531;BME280;14201;43.188;24.160;2024-02-04T11:26:01;99901.28;;;16.14;47.85
26531;BME280;14201;43.188;24.160;2024-02-04T11:28:29;99888.50;;;15.93;48.11
26531;BME280;14201;43.188;24.160;2024-02-04T11:30:58;99890.84;;;16.17;49.21
26531;BME280;14201;43.188;24.160;2024-02-04T11:33:24;99877.94;;;16.66;47.91
26531;BME280;14201;43.188;24.160;2024-02-04T11:36:00;99873.00;;;16.81;46.54
26531;BME280;14201;43.188;24.160;2024-02-04T11:38:35;99875.22;;;17.04;46.40
26531;BME280;14201;43.188;24.160;2024-02-04T11:41:02;99877.00;;;17.05;45.59
26531;BME280;14201;43.188;24.160;2024-02-04T11:43:29;99884.03;;;17.06;46.49
26531;BME280;14201;43.188;24.160;2024-02-04T11:45:54;99887.25;;;17.37;45.89
26531;BME280;14201;43.188;24.160;2024-02-04T11:48:20;99886.09;;;17.69;45.99
26531;BME280;14201;43.188;24.160;2024-02-04T11:50:52;99879.56;;;17.96;44.45
26531;BME280;14201;43.188;24.160;2024-02-04T11:53:18;99896.34;;;18.01;43.87
26531;BME280;14201;43.188;24.160;2024-02-04T11:55:44;99888.91;;;17.79;44.07
26531;BME280;14201;43.188;24.160;2024-02-04T11:58:10;99890.69;;;17.80;43.81
26531;BME280;14201;43.188;24.160;2024-02-04T12:00:36;99897.09;;;17.45;44.06
26531;BME280;14201;43.188;24.160;2024-02-04T12:03:02;99901.69;;;17.57;44.38
26531;BME280;14201;43.188;24.160;2024-02-04T12:05:32;99892.84;;;17.54;44.17
26531;BME280;14201;43.188;24.160;2024-02-04T12:08:05;99887.78;;;17.66;44.62
26531;BME280;14201;43.188;24.160;2024-02-04T12:10:31;99867.72;;;17.73;43.95
26531;BME280;14201;43.188;24.160;2024-02-04T12:12:58;99875.00;;;17.86;44.22
26531;BME280;14201;43.188;24.160;2024-02-04T12:15:24;99873.31;;;17.91;43.63
26531;BME280;14201;43.188;24.160;2024-02-04T12:17:50;99865.94;;;17.71;44.65
26531;BME280;14201;43.188;24.160;2024-02-04T12:20:16;99860.91;;;17.84;43.69
26531;BME280;14201;43.188;24.160;2024-02-04T12:22:42;99861.97;;;17.97;43.73
26531;BME280;14201;43.188;24.160;2024-02-04T12:25:08;99875.41;;;17.62;43.64
26531;BME280;14201;43.188;24.160;2024-02-04T12:27:34;99861.81;;;17.86;43.88
26531;BME280;14201;43.188;24.160;2024-02-04T12:29:59;99853.19;;;17.96;43.65
26531;BME280;14201;43.188;24.160;2024-02-04T12:32:25;99856.66;;;17.92;43.07
26531;BME280;14201;43.188;24.160;2024-02-04T12:34:51;99848.84;;;17.98;43.72
26531;BME280;14201;43.188;24.160;2024-02-04T12:37:19;99850.72;;;18.05;43.47
26531;BME280;14201;43.188;24.160;2024-02-04T12:39:45;99840.31;;;18.15;43.03
26531;BME280;14201;43.188;24.160;2024-02-04T12:42:11;99842.13;;;18.20;42.84
26531;BME280;14201;43.188;24.160;2024-02-04T12:44:44;99829.44;;;17.95;43.67
26531;BME280;14201;43.188;24.160;2024-02-04T12:47:09;99834.91;;;18.08;43.84
26531;BME280;14201;43.188;24.160;2024-02-04T12:49:35;99827.75;;;17.98;42.67
26531;BME280;14201;43.188;24.160;2024-02-04T12:52:07;99826.41;;;17.70;43.45
26531;BME280;14201;43.188;24.160;2024-02-04T12:54:42;99824.06;;;17.87;43.25